Terminal Aerodrome Forecast
Issued by NWS

Home | Current Version | Previous Version | Graphics & Text | Print | Product List | Glossary On
Versions: 1 2 3 4 5 6 7 8 9 10 11 12 13
264
FTUS45 KGGW 240523
TAFSDY
TAF
KSDY 240523Z 2406/2506 28013G19KT P6SM FEW200
     FM241000 28015G25KT P6SM SCT040
     FM241500 29025G35KT P6SM BKN025
     FM242300 31016G24KT P6SM BKN035
     FM250300 32009KT P6SM BKN040=

USA.gov is the U.S. government's official web portal to all federal, state and local government web resources and services.